首页
METAR-TAF:

METAR-TAF

机场 :

葉卡捷琳堡, 俄罗斯

科利佐沃國際機場

纬度: 56-50N, 经度: 060-38E, 海拔: 237米

当前天气观测

该预报发布于23分钟前的22:00 UTC
风速4节,风向西转西南,在西南西转西北之间变化
温度 -2°C
湿度 100%
气压 1014 hPa
能见度10公里或以上
1500米以下无云,无积雨云

METAR: USSS 252200Z 25002MPS 230V300 CAVOK M02/M02 Q1014 R26R/120050 NOSIG RMK QFE740/0987

时间: 03:23 (22:23 UTC)

预报

该预报发布于2小时和24分钟前的19:59 UTC
预报有效从25日的 21点(UTC)到 26日的 21点(UTC)
风速6节,风向西转西南
能見度: 3100
散云层高于1100英尺
轻雾
短暂存在
从 25日的 21点(UTC)到 26日的 03点(UTC)
能見度: 0300
层高于200英尺
冻雾
成为
从 26日的 03点(UTC)到 26日的 05点(UTC)
能見度: 5000
轻雾
成为
从 26日的 07点(UTC)到 26日的 08点(UTC)
能见度10公里或以上
散云层高于2000英尺

TAF: USSS 251959Z 2521/2621 24003MPS 3100 BR SCT011 TEMPO 2521/2603 0300 FZFG VV002 BECMG 2603/2605 5000 BR BECMG 2607/2608 9999 NSW SCT020

超过4000个机场的气象观测和天气预报(METAR&TAF报告)。

可查询的气象台以黄色和红色小点在地图上表示。

将鼠标移到小点上方,可查看气象台名称。

然后点击查看天气观测和预报。

如需切换地图:点击带黑十字的绿色按钮放大地图;点击带横线的绿色按钮缩小地图;或者点击绿色箭头查看邻近地区的地图。


METAR-TAF: